Arctic Taglu — CY8968 — position and weather

sailwx.info

Track history (hours):
 
Tides and Currents Weather Stations Pressure Air Temp Water Temp Dewpoint Dewpoint Depression Visibility Wind Speed Wind Dir Waves Ship Positions

Arctic Taglu

Last reported at 2017-Dec-18 12:28 UTC. Time now 2017-Dec-18 12:56 UTC.
Position N 48°19' W 123°32'.

Length 33 m; draft 6 m.

Type: Tug. MMSI: 316003483.

Date/timePositionNaut miles runAvg speedWind from/ knotsBaromVisibWave heightAir tempDewpointWater temp
2017-Dec-18 12:28N 48°19' W 123°32'3 6.4
2017-Dec-18 12:00N 48°18' W 123°36'4 7.4
2017-Dec-18 11:30N 48°19' W 123°42'4 9.0
2017-Dec-18 11:00N 48°20' W 123°48'4 9.0
2017-Dec-18 10:30N 48°21' W 123°55'5 9.4
2017-Dec-18 10:00N 48°23' W 124°02'5 9.5
2017-Dec-18 09:30N 48°24' W 124°08'5 9.2
2017-Dec-18 09:00N 48°26' W 124°15'4 8.6
2017-Dec-18 08:30N 48°27' W 124°21'4 8.5
2017-Dec-18 07:59N 48°29' W 124°27'4 8.1
2017-Dec-18 07:30N 48°31' W 124°33'4 7.5
2017-Dec-18 07:00N 48°32' W 124°38'4 7.2
2017-Dec-18 06:30N 48°34' W 124°43'3 6.5
2017-Dec-18 06:00N 48°35' W 124°47'3 6.5
2017-Dec-18 05:30N 48°36' W 124°52'3 6.7
2017-Dec-18 05:00N 48°38' W 124°56'3 6.5
2017-Dec-18 04:30N 48°39' W 125°01'3 6.2
2017-Dec-18 03:59N 48°40' W 125°05'3 5.9
2017-Dec-18 03:30N 48°42' W 125°09'3 5.8
2017-Dec-18 03:00N 48°44' W 125°12'3 5.8
2017-Dec-18 02:30N 48°46' W 125°15'3 5.2
2017-Dec-18 02:00N 48°48' W 125°16'2 4.1
2017-Dec-18 01:30N 48°50' W 125°16'2 3.8
2017-Dec-18 00:59N 48°52' W 125°15'2 4.1
2017-Dec-18 00:30N 48°54' W 125°13'2 4.0
2017-Dec-17 23:57N 48°55' W 125°11'2 4.0
2017-Dec-17 23:30N 48°56' W 125°08'2 3.4
2017-Dec-17 22:58N 48°58' W 125°08'2 0.1
2017-Dec-16 15:52N 48°58' W 125°10'2 5.0
2017-Dec-16 15:30N 48°56' W 125°11'2 4.1
2017-Dec-16 15:00N 48°54' W 125°13'4 7.2
2017-Dec-16 14:30N 48°51' W 125°15'3 6.8
2017-Dec-16 14:00N 48°47' W 125°16'3 6.1
2017-Dec-16 13:30N 48°45' W 125°13'3 6.1
2017-Dec-16 13:00N 48°43' W 125°10'3 5.9
2017-Dec-16 12:30N 48°41' W 125°06'3 5.5
2017-Dec-16 12:00N 48°40' W 125°03'3 5.3
2017-Dec-16 11:30N 48°39' W 124°59'3 5.3
2017-Dec-16 11:00N 48°38' W 124°55'3 5.5
2017-Dec-16 10:30N 48°37' W 124°51'3 5.6
2017-Dec-16 10:00N 48°36' W 124°47'3 5.5
2017-Dec-16 09:30N 48°35' W 124°44'2 3.4
2017-Dec-16 09:00N 48°34' W 124°41'1 2.7
2017-Dec-16 08:30N 48°34' W 124°39'1 2.6
2017-Dec-16 08:00N 48°33' W 124°37'1 2.6
2017-Dec-16 07:30N 48°33' W 124°36'1 2.7
2017-Dec-16 07:00N 48°32' W 124°34'1 2.3
2017-Dec-16 06:30N 48°32' W 124°32'1 2.5
2017-Dec-16 06:00N 48°32' W 124°30'1 2.5
2017-Dec-16 05:30N 48°32' W 124°32'2 3.6
2017-Dec-16 05:00N 48°33' W 124°34'1 1.6
2017-Dec-16 04:30N 48°33' W 124°36'2 4.1
2017-Dec-16 04:00N 48°32' W 124°33'2 4.6
2017-Dec-16 03:30N 48°31' W 124°29'2 4.9
2017-Dec-16 03:00N 48°30' W 124°26'3 5.0
2017-Dec-16 02:30N 48°29' W 124°23'3 5.7
2017-Dec-16 02:00N 48°28' W 124°19'3 6.0
2017-Dec-16 01:30N 48°27' W 124°15'3 5.7
2017-Dec-16 01:00N 48°25' W 124°11'2 4.2
2017-Dec-16 00:30N 48°24' W 124°08'2 3.8
2017-Dec-16 00:00N 48°24' W 124°11'2 4.5
2017-Dec-15 23:30N 48°26' W 124°13'3 5.3
2017-Dec-15 23:00N 48°25' W 124°10'3 5.5
2017-Dec-15 22:30N 48°24' W 124°06'3 5.9
2017-Dec-15 22:00N 48°23' W 124°02'3 5.9
2017-Dec-15 21:30N 48°22' W 123°57'3 5.3
2017-Dec-15 21:00N 48°21' W 123°53'3 5.2
2017-Dec-15 20:30N 48°21' W 123°50'3 5.8
2017-Dec-15 20:00N 48°20' W 123°46'3 5.6
2017-Dec-15 19:30N 48°19' W 123°42'3 5.4
2017-Dec-15 19:00N 48°18' W 123°38'3 5.8
2017-Dec-15 18:28N 48°18' W 123°33'4 8.5
2017-Dec-15 18:00N 48°20' W 123°28'4 8.3
2017-Dec-15 17:30N 48°23' W 123°23'5 9.1
2017-Dec-15 17:00N 48°23' W 123°17'4 8.1
2017-Dec-15 16:30N 48°26' W 123°13'5 9.2
2017-Dec-15 16:00N 48°31' W 123°13'5 9.3
2017-Dec-15 15:30N 48°36' W 123°14'510.2
2017-Dec-15 15:00N 48°41' W 123°16'4 7.2
2017-Dec-15 14:30N 48°43' W 123°12'4 8.4
2017-Dec-15 14:00N 48°45' W 123°06'4 8.7
2017-Dec-15 13:30N 48°48' W 123°01'5 8.7
2017-Dec-15 12:59N 48°51' W 123°05'5 9.5
2017-Dec-15 12:28N 48°55' W 123°10'4 9.0
2017-Dec-15 12:00N 48°57' W 123°15'4 8.3
2017-Dec-15 11:30N 49°00' W 123°20'4 8.1
2017-Dec-15 11:00N 49°03' W 123°24'4 8.2
2017-Dec-15 10:30N 49°07' W 123°26'4 8.5
2017-Dec-15 10:00N 49°11' W 123°26'4 8.6
2017-Dec-15 09:30N 49°16' W 123°28'4 8.5
2017-Dec-15 09:00N 49°20' W 123°27'4 8.6
2017-Dec-15 08:30N 49°24' W 123°25'4 8.0
2017-Dec-15 08:00N 49°27' W 123°28'1 1.3
2017-Dec-15 07:29N 49°28' W 123°27'1 2.5
2017-Dec-15 07:00N 49°27' W 123°27'5 9.6
2017-Dec-15 06:30N 49°22' W 123°26'510.5
2017-Dec-15 06:00N 49°17' W 123°26'510.1
2017-Dec-15 05:30N 49°12' W 123°23'5 9.2
2017-Dec-15 05:00N 49°08' W 123°20'4 8.2
2017-Dec-15 04:30N 49°08' W 123°14'612.5
2017-Dec-15 04:00N 49°07' W 123°05'9 5.9
2017-Dec-15 02:30N 49°13' W 122°53'0 0.0
2017-Dec-15 01:00N 49°12' W 122°53'0 0.0
2017-Dec-15 00:30N 49°13' W 122°53'0 0.0
2017-Dec-14 18:30N 49°13' W 122°53'0 0.0
2017-Dec-14 18:00N 49°13' W 122°53'0 0.0
2017-Dec-14 17:30N 49°12' W 122°53'0 0.0
2017-Dec-14 17:00N 49°13' W 122°53'0 0.0
2017-Dec-14 16:30N 49°13' W 122°53'0 0.0
2017-Dec-14 16:00N 49°13' W 122°53'0 0.0
2017-Dec-14 15:00N 49°13' W 122°53'0 0.0
2017-Dec-14 14:30N 49°13' W 122°53'0 0.0
2017-Dec-14 13:59N 49°13' W 122°53'0 0.0
2017-Dec-14 13:29N 49°13' W 122°53'0 0.0
2017-Dec-14 12:59N 49°13' W 122°53'0 0.0
2017-Dec-14 12:30N 49°13' W 122°53'0 0.0
2017-Dec-14 12:00N 49°13' W 122°53'0 0.0
2017-Dec-14 11:30N 49°13' W 122°53'0 0.0
2017-Dec-14 11:00N 49°13' W 122°53'0 0.0
2017-Dec-14 10:30N 49°13' W 122°53'0 0.0
2017-Dec-14 10:00N 49°13' W 122°53'0 0.0
2017-Dec-14 09:30N 49°12' W 122°53'0 0.0
2017-Dec-14 09:00N 49°13' W 122°53'0 0.0
2017-Dec-14 08:29N 49°13' W 122°53'0 0.0
2017-Dec-14 08:00N 49°13' W 122°53'0 0.0
2017-Dec-14 07:30N 49°12' W 122°53'0 0.0
2017-Dec-14 07:00N 49°13' W 122°53'0 0.0
2017-Dec-14 06:30N 49°13' W 122°53'0 0.0
2017-Dec-14 06:00N 49°12' W 122°53'0 0.0
2017-Dec-14 05:30N 49°13' W 122°53'0 0.0
2017-Dec-14 04:59N 49°13' W 122°53'0 0.0
2017-Dec-14 04:30N 49°13' W 122°53'0 0.0
2017-Dec-14 03:59N 49°13' W 122°53'1 1.0
2017-Dec-14 03:30N 49°12' W 122°54'2 4.2
2017-Dec-14 03:00N 49°10' W 122°56'3 6.8
2017-Dec-14 02:30N 49°09' W 123°00'4 7.5
2017-Dec-14 02:00N 49°07' W 123°05'4 7.7
2017-Dec-14 01:30N 49°07' W 123°11'4 7.7
2017-Dec-14 01:00N 49°07' W 123°17'5 9.3
2017-Dec-14 00:30N 49°08' W 123°23'611.4
2017-Dec-13 23:59N 49°14' W 123°26'511.2
2017-Dec-13 23:30N 49°19' W 123°26'510.7
2017-Dec-13 23:00N 49°25' W 123°26'3 6.7
2017-Dec-13 22:30N 49°28' W 123°27'0 0.0
2017-Dec-13 22:00N 49°28' W 123°27'0 0.0
2017-Dec-13 21:30N 49°28' W 123°27'0 0.0
2017-Dec-13 21:00N 49°28' W 123°27'0 0.0
2017-Dec-13 20:30N 49°28' W 123°27'0 0.0
2017-Dec-13 20:00N 49°28' W 123°27'0 0.0
2017-Dec-13 19:28N 49°28' W 123°27'0 0.0
2017-Dec-13 19:00N 49°28' W 123°27'0 0.0
2017-Dec-13 18:30N 49°28' W 123°27'0 0.0
2017-Dec-13 18:00N 49°28' W 123°27'0 0.0
2017-Dec-13 17:30N 49°28' W 123°27'0 0.1
2017-Dec-13 17:00N 49°28' W 123°28'0 0.1
2017-Dec-13 16:30N 49°28' W 123°27'0 0.0
2017-Dec-13 16:00N 49°28' W 123°27'0 0.0
2017-Dec-13 15:29N 49°28' W 123°27'0 0.0
2017-Dec-13 15:00N 49°28' W 123°27'0 0.0
2017-Dec-13 14:30N 49°28' W 123°27'0 0.0
2017-Dec-13 14:00N 49°28' W 123°27'0 0.0
2017-Dec-13 13:30N 49°28' W 123°27'0 0.0
2017-Dec-13 13:00N 49°28' W 123°27'0 0.0
2017-Dec-13 12:30N 49°28' W 123°27'0 0.0
2017-Dec-13 12:00N 49°28' W 123°27'0 0.0
2017-Dec-13 11:30N 49°28' W 123°27'0 0.0
2017-Dec-13 11:00N 49°28' W 123°27'0 0.0
2017-Dec-13 10:30N 49°28' W 123°27'0 0.0
2017-Dec-13 10:00N 49°28' W 123°27'0 0.0
2017-Dec-13 09:30N 49°28' W 123°27'0 0.0
2017-Dec-13 08:59N 49°28' W 123°27'0 0.0
2017-Dec-13 08:30N 49°28' W 123°27'0 0.0
2017-Dec-13 08:00N 49°28' W 123°27'0 0.0
2017-Dec-13 07:30N 49°28' W 123°27'0 0.0
2017-Dec-13 07:00N 49°28' W 123°27'0 0.0
2017-Dec-13 06:30N 49°28' W 123°27'0 0.0
2017-Dec-13 06:00N 49°28' W 123°27'0 0.0
2017-Dec-13 05:30N 49°28' W 123°27'0 0.0
2017-Dec-13 05:00N 49°28' W 123°27'0 0.0
2017-Dec-13 04:28N 49°28' W 123°27'0 0.0
2017-Dec-13 04:00N 49°28' W 123°27'0 0.0
2017-Dec-13 03:30N 49°28' W 123°27'0 0.0
2017-Dec-13 03:00N 49°28' W 123°27'0 0.0
2017-Dec-13 02:28N 49°28' W 123°27'0 0.0
2017-Dec-13 01:59N 49°28' W 123°27'0 0.0
2017-Dec-13 01:30N 49°28' W 123°27'0 0.0
2017-Dec-13 01:00N 49°28' W 123°27'0 0.0
2017-Dec-13 00:30N 49°28' W 123°27'1 2.1
2017-Dec-13 00:00N 49°28' W 123°29'0 0.2
2017-Dec-12 23:30N 49°28' W 123°29'0 0.0
2017-Dec-12 23:00N 49°28' W 123°29'0 0.0
2017-Dec-12 22:30N 49°28' W 123°29'0 0.8
2017-Dec-12 22:00N 49°28' W 123°28'1 1.2
2017-Dec-12 21:30N 49°28' W 123°27'0 0.2
2017-Dec-12 21:00N 49°28' W 123°28'1 1.0
2017-Dec-12 20:30N 49°28' W 123°28'2 3.5
2017-Dec-12 20:00N 49°26' W 123°27'3 3.8
2017-Dec-12 19:13N 49°23' W 123°28'1 5.7
2017-Dec-12 19:00N 49°23' W 123°30'3 5.4
2017-Dec-12 18:30N 49°22' W 123°34'3 5.4
2017-Dec-12 18:00N 49°23' W 123°38'3 5.4
2017-Dec-12 17:30N 49°23' W 123°42'3 5.2
2017-Dec-12 17:00N 49°23' W 123°46'3 5.2
2017-Dec-12 16:30N 49°24' W 123°50'3 5.2
2017-Dec-12 15:59N 49°25' W 123°54'2 5.0
2017-Dec-12 15:30N 49°25' W 123°57'2 5.0
2017-Dec-12 15:00N 49°26' W 124°01'3 5.2
2017-Dec-12 14:30N 49°28' W 124°04'3 5.4
2017-Dec-12 13:59N 49°29' W 124°08'6 5.5
2017-Dec-12 12:59N 49°32' W 124°15'3 5.3
2017-Dec-12 12:30N 49°33' W 124°19'3 5.8
2017-Dec-12 12:00N 49°34' W 124°23'3 5.3
2017-Dec-12 11:30N 49°35' W 124°26'3 5.1
2017-Dec-12 11:00N 49°37' W 124°30'2 5.1
2017-Dec-12 10:30N 49°38' W 124°33'3 5.2
2017-Dec-12 10:00N 49°40' W 124°36'3 5.4
2017-Dec-12 09:30N 49°41' W 124°39'3 5.1
2017-Dec-12 09:00N 49°43' W 124°43'3 5.4
2017-Dec-12 08:30N 49°44' W 124°46'3 5.5
2017-Dec-12 08:00N 49°46' W 124°49'3 5.1
2017-Dec-12 07:30N 49°48' W 124°52'2 4.9
2017-Dec-12 07:00N 49°49' W 124°55'3 5.1
2017-Dec-12 06:30N 49°51' W 124°58'3 5.3
2017-Dec-12 06:00N 49°53' W 125°01'3 5.5
2017-Dec-12 05:30N 49°55' W 125°05'3 5.6
2017-Dec-12 05:00N 49°57' W 125°08'3 6.4
2017-Dec-12 04:30N 49°59' W 125°12'4 7.7
2017-Dec-12 04:00N 50°02' W 125°14'3 6.5
2017-Dec-12 03:30N 50°05' W 125°16'2 4.8
2017-Dec-12 03:00N 50°07' W 125°19'2 3.8
2017-Dec-12 02:30N 50°08' W 125°21'2 3.1
2017-Dec-12 02:00N 50°09' W 125°21'1 2.5
2017-Dec-12 01:30N 50°11' W 125°22'1 1.4
2017-Dec-12 01:00N 50°11' W 125°22'1 1.5
2017-Dec-12 00:30N 50°12' W 125°22'1 1.7
2017-Dec-12 00:00N 50°13' W 125°23'1 1.5
2017-Dec-11 23:30N 50°14' W 125°23'1 1.7
2017-Dec-11 23:00N 50°14' W 125°23'1 1.9
2017-Dec-11 22:29N 50°15' W 125°24'1 1.8
2017-Dec-11 22:00N 50°16' W 125°24'1 1.4
2017-Dec-11 21:30N 50°17' W 125°25'1 1.7
2017-Dec-11 21:00N 50°18' W 125°25'1 1.9
2017-Dec-11 20:30N 50°18' W 125°25'1 2.8
2017-Dec-11 20:00N 50°17' W 125°24'2 4.1
2017-Dec-11 19:30N 50°15' W 125°23'2 3.9
2017-Dec-11 19:00N 50°13' W 125°22'1 2.4
2017-Dec-11 18:30N 50°12' W 125°22'2 3.7
2017-Dec-11 18:00N 50°14' W 125°23'2 3.8
2017-Dec-11 17:29N 50°16' W 125°24'2 4.4
2017-Dec-11 16:56N 50°18' W 125°25'2 4.8
2017-Dec-11 16:29N 50°20' W 125°26'3 6.1
2017-Dec-11 15:56N 50°21' W 125°31'3 5.7
2017-Dec-11 15:24N 50°22' W 125°36'4 5.6
2017-Dec-11 14:42N 50°22' W 125°42'3 6.0
2017-Dec-11 14:11N 50°22' W 125°47'14 3.7
2017-Dec-11 10:23N 50°28' W 126°06'1 2.1
2017-Dec-11 09:59N 50°28' W 126°08'1 2.5
2017-Dec-11 09:30N 50°28' W 126°10'4 2.4
2017-Dec-11 07:46N 50°29' W 126°16'1 2.4
2017-Dec-11 07:20N 50°29' W 126°18'1 2.6
2017-Dec-11 06:51N 50°29' W 126°20'1 2.2
2017-Dec-11 06:13N 50°30' W 126°22'1 2.1
2017-Dec-11 05:54N 50°30' W 126°23'1 2.2
2017-Dec-11 05:16N 50°30' W 126°25'1 2.1
2017-Dec-11 05:00N 50°30' W 126°26'1 2.5
2017-Dec-11 04:28N 50°30' W 126°28'1 2.6
2017-Dec-11 03:58N 50°30' W 126°30'1 2.1
2017-Dec-11 03:28N 50°30' W 126°32'11 2.4
2017-Dec-10 23:00N 50°37' W 126°45'1 1.6
2017-Dec-10 22:28N 50°37' W 126°46'1 2.8
2017-Dec-10 21:59N 50°38' W 126°47'1 2.8
2017-Dec-10 21:29N 50°39' W 126°49'2 2.9
2017-Dec-10 20:46N 50°40' W 126°51'1 2.7
2017-Dec-10 20:29N 50°41' W 126°52'2 2.8
2017-Dec-10 19:56N 50°42' W 126°54'1 2.6
2017-Dec-10 19:26N 50°43' W 126°56'1 3.2
2017-Dec-10 18:59N 50°43' W 126°58'2 3.2
2017-Dec-10 18:30N 50°44' W 126°60'2 3.8
2017-Dec-10 18:00N 50°46' W 127°02'2 4.2
2017-Dec-10 17:30N 50°47' W 127°04'2 4.1
2017-Dec-10 17:00N 50°48' W 127°07'2 4.1
2017-Dec-10 16:30N 50°49' W 127°10'2 4.2
2017-Dec-10 16:00N 50°50' W 127°13'2 2.9
2017-Dec-10 15:28N 50°51' W 127°15'1 2.0
2017-Dec-10 14:59N 50°51' W 127°16'1 2.7
2017-Dec-10 14:30N 50°52' W 127°18'2 3.2
2017-Dec-10 14:01N 50°53' W 127°20'2 3.2
2017-Dec-10 13:31N 50°54' W 127°22'3 5.9
2017-Dec-10 13:01N 50°55' W 127°26'3 6.0
2017-Dec-10 12:30N 50°57' W 127°30'3 5.4
2017-Dec-10 12:00N 50°59' W 127°33'3 5.1
2017-Dec-10 11:30N 51°01' W 127°36'2 4.5
2017-Dec-10 11:00N 51°02' W 127°38'2 3.9
2017-Dec-10 10:30N 51°04' W 127°41'2 3.8
2017-Dec-10 10:00N 51°05' W 127°43'2 4.0
2017-Dec-10 09:30N 51°06' W 127°46'2 4.2
2017-Dec-10 09:00N 51°07' W 127°48'2 4.2
2017-Dec-10 08:30N 51°09' W 127°51'2 3.9
2017-Dec-10 08:00N 51°11' W 127°52'2 4.2
2017-Dec-10 07:30N 51°13' W 127°52'2 4.2
2017-Dec-10 07:00N 51°15' W 127°52'3 4.3
2017-Dec-10 06:24N 51°17' W 127°53'2 4.0
2017-Dec-10 05:59N 51°19' W 127°53'2 3.5
2017-Dec-10 05:30N 51°21' W 127°53'2 4.0
2017-Dec-10 05:00N 51°23' W 127°54'2 4.9
2017-Dec-10 04:31N 51°25' W 127°52'2 4.6
2017-Dec-10 04:00N 51°27' W 127°51'2 4.2
2017-Dec-10 03:30N 51°29' W 127°51'2 3.3
2017-Dec-10 03:00N 51°31' W 127°51'1 2.3
2017-Dec-10 02:30N 51°32' W 127°52'1 2.1
2017-Dec-10 02:00N 51°33' W 127°52'1 2.3
2017-Dec-10 01:30N 51°34' W 127°52'1 2.8
2017-Dec-10 01:00N 51°35' W 127°53'2 4.5
2017-Dec-10 00:30N 51°38' W 127°54'2 4.8
2017-Dec-10 00:00N 51°40' W 127°55'3 5.2
2017-Dec-09 23:30N 51°42' W 127°56'3 5.4
2017-Dec-09 23:00N 51°45' W 127°57'3 5.4
2017-Dec-09 22:30N 51°48' W 127°57'3 5.2
2017-Dec-09 22:00N 51°50' W 127°57'3 5.4
2017-Dec-09 21:30N 51°53' W 127°57'3 5.6
2017-Dec-09 21:00N 51°56' W 127°56'3 5.2
2017-Dec-09 20:30N 51°58' W 127°56'1 1.9
2017-Dec-09 20:00N 51°59' W 127°55'2 4.5
2017-Dec-09 19:30N 51°57' W 127°56'2 4.8
2017-Dec-09 19:00N 51°54' W 127°56'3 5.3
2017-Dec-09 18:30N 51°52' W 127°55'2 4.7
2017-Dec-09 18:00N 51°49' W 127°55'2 4.0
2017-Dec-09 17:30N 51°47' W 127°55'2 3.3
2017-Dec-09 17:00N 51°46' W 127°54'2 3.6
2017-Dec-09 16:30N 51°44' W 127°54'2 3.4
2017-Dec-09 16:00N 51°42' W 127°54'2 3.5
2017-Dec-09 15:30N 51°41' W 127°54'2 3.6
2017-Dec-09 15:00N 51°39' W 127°53'2 3.1
2017-Dec-09 14:30N 51°37' W 127°54'2 3.7
2017-Dec-09 14:00N 51°39' W 127°56'2 4.0
2017-Dec-09 13:30N 51°41' W 127°57'2 3.9
2017-Dec-09 13:00N 51°42' W 127°57'2 3.6
2017-Dec-09 12:30N 51°44' W 127°56'2 3.1
2017-Dec-09 12:00N 51°43' W 127°55'2 4.1
2017-Dec-09 11:30N 51°41' W 127°54'2 3.9
2017-Dec-09 11:00N 51°39' W 127°53'2 3.5
2017-Dec-09 10:30N 51°37' W 127°54'2 3.7
2017-Dec-09 10:00N 51°39' W 127°56'2 4.2
2017-Dec-09 09:30N 51°41' W 127°57'2 4.3
2017-Dec-09 09:00N 51°43' W 127°58'2 4.6
2017-Dec-09 08:30N 51°45' W 127°58'2 4.7
2017-Dec-09 08:00N 51°48' W 127°58'2 4.1
2017-Dec-09 07:30N 51°50' W 127°58'2 4.5
2017-Dec-09 07:01N 51°52' W 127°58'2 3.7
2017-Dec-09 06:30N 51°53' W 127°56'1 2.8
2017-Dec-09 06:00N 51°52' W 127°56'1 2.8
2017-Dec-09 05:30N 51°50' W 127°56'1 2.7
2017-Dec-09 05:00N 51°49' W 127°56'1 3.0
2017-Dec-09 04:30N 51°48' W 127°56'2 3.0
2017-Dec-09 04:00N 51°46' W 127°56'2 3.3
2017-Dec-09 03:30N 51°45' W 127°55'2 3.3
2017-Dec-09 03:00N 51°43' W 127°55'2 3.8
2017-Dec-09 02:30N 51°41' W 127°54'2 4.3
2017-Dec-09 02:00N 51°39' W 127°53'2 3.2
2017-Dec-09 01:30N 51°38' W 127°55'3 5.7
2017-Dec-09 01:00N 51°40' W 127°57'3 6.2
2017-Dec-09 00:30N 51°43' W 127°58'3 6.3
2017-Dec-09 00:00N 51°47' W 127°57'3 6.1
2017-Dec-08 23:30N 51°50' W 127°57'3 5.5
2017-Dec-08 23:00N 51°52' W 127°56'3 5.9
2017-Dec-08 22:30N 51°55' W 127°56'3 5.9
2017-Dec-08 22:00N 51°58' W 127°56'3 5.7
2017-Dec-08 21:30N 52°01' W 127°55'3 5.6
2017-Dec-08 21:00N 52°04' W 127°55'3 6.8
2017-Dec-08 20:30N 52°07' W 127°53'3 6.2
2017-Dec-08 20:00N 52°10' W 127°52'12 3.9
2017-Dec-08 17:02N 52°18' W 128°06'0 3.9
2017-Dec-08 17:00N 52°18' W 128°06'3 4.6
2017-Dec-08 16:25N 52°16' W 128°09'2 5.2
2017-Dec-08 16:00N 52°14' W 128°12'2 3.0
2017-Dec-08 15:13N 52°14' W 128°15'1 4.6
2017-Dec-08 14:59N 52°15' W 128°17'3 4.4
2017-Dec-08 14:16N 52°15' W 128°22'1 4.3
2017-Dec-08 14:00N 52°15' W 128°24'2 4.3
2017-Dec-08 13:30N 52°16' W 128°27'2 4.9
2017-Dec-08 13:00N 52°18' W 128°30'2 5.0
2017-Dec-08 12:30N 52°20' W 128°31'  
Track history (hours):
 
Tides and Currents Weather Stations Pressure Air Temp Water Temp Dewpoint Dewpoint Depression Visibility Wind Speed Wind Dir Waves Ship Positions

Arctic Taglu

Last reported at 2017-Dec-18 12:28 UTC. Time now 2017-Dec-18 12:56 UTC.
Position N 48°19' W 123°32'.

Length 33 m; draft 6 m.

Type: Tug. MMSI: 316003483.

Date/timePositionNaut miles runAvg speedWind from/ knotsBaromVisibWave heightAir tempDewpointWater temp
2017-Dec-18 12:28N 48°19' W 123°32'3 6.4
2017-Dec-18 12:00N 48°18' W 123°36'4 7.4
2017-Dec-18 11:30N 48°19' W 123°42'4 9.0
2017-Dec-18 11:00N 48°20' W 123°48'4 9.0
2017-Dec-18 10:30N 48°21' W 123°55'5 9.4
2017-Dec-18 10:00N 48°23' W 124°02'5 9.5
2017-Dec-18 09:30N 48°24' W 124°08'5 9.2
2017-Dec-18 09:00N 48°26' W 124°15'4 8.6
2017-Dec-18 08:30N 48°27' W 124°21'4 8.5
2017-Dec-18 07:59N 48°29' W 124°27'4 8.1
2017-Dec-18 07:30N 48°31' W 124°33'4 7.5
2017-Dec-18 07:00N 48°32' W 124°38'4 7.2
2017-Dec-18 06:30N 48°34' W 124°43'3 6.5
2017-Dec-18 06:00N 48°35' W 124°47'3 6.5
2017-Dec-18 05:30N 48°36' W 124°52'3 6.7
2017-Dec-18 05:00N 48°38' W 124°56'3 6.5
2017-Dec-18 04:30N 48°39' W 125°01'3 6.2
2017-Dec-18 03:59N 48°40' W 125°05'3 5.9
2017-Dec-18 03:30N 48°42' W 125°09'3 5.8
2017-Dec-18 03:00N 48°44' W 125°12'3 5.8
2017-Dec-18 02:30N 48°46' W 125°15'3 5.2
2017-Dec-18 02:00N 48°48' W 125°16'2 4.1
2017-Dec-18 01:30N 48°50' W 125°16'2 3.8
2017-Dec-18 00:59N 48°52' W 125°15'2 4.1
2017-Dec-18 00:30N 48°54' W 125°13'2 4.0
2017-Dec-17 23:57N 48°55' W 125°11'2 4.0
2017-Dec-17 23:30N 48°56' W 125°08'2 3.4
2017-Dec-17 22:58N 48°58' W 125°08'2 0.1
2017-Dec-16 15:52N 48°58' W 125°10'2 5.0
2017-Dec-16 15:30N 48°56' W 125°11'2 4.1
2017-Dec-16 15:00N 48°54' W 125°13'4 7.2
2017-Dec-16 14:30N 48°51' W 125°15'3 6.8
2017-Dec-16 14:00N 48°47' W 125°16'3 6.1
2017-Dec-16 13:30N 48°45' W 125°13'3 6.1
2017-Dec-16 13:00N 48°43' W 125°10'3 5.9
2017-Dec-16 12:30N 48°41' W 125°06'3 5.5
2017-Dec-16 12:00N 48°40' W 125°03'3 5.3
2017-Dec-16 11:30N 48°39' W 124°59'3 5.3
2017-Dec-16 11:00N 48°38' W 124°55'3 5.5
2017-Dec-16 10:30N 48°37' W 124°51'3 5.6
2017-Dec-16 10:00N 48°36' W 124°47'3 5.5
2017-Dec-16 09:30N 48°35' W 124°44'2 3.4
2017-Dec-16 09:00N 48°34' W 124°41'1 2.7
2017-Dec-16 08:30N 48°34' W 124°39'1 2.6
2017-Dec-16 08:00N 48°33' W 124°37'1 2.6
2017-Dec-16 07:30N 48°33' W 124°36'1 2.7
2017-Dec-16 07:00N 48°32' W 124°34'1 2.3
2017-Dec-16 06:30N 48°32' W 124°32'1 2.5
2017-Dec-16 06:00N 48°32' W 124°30'1 2.5
2017-Dec-16 05:30N 48°32' W 124°32'2 3.6
2017-Dec-16 05:00N 48°33' W 124°34'1 1.6
2017-Dec-16 04:30N 48°33' W 124°36'2 4.1
2017-Dec-16 04:00N 48°32' W 124°33'2 4.6
2017-Dec-16 03:30N 48°31' W 124°29'2 4.9
2017-Dec-16 03:00N 48°30' W 124°26'3 5.0
2017-Dec-16 02:30N 48°29' W 124°23'3 5.7
2017-Dec-16 02:00N 48°28' W 124°19'3 6.0
2017-Dec-16 01:30N 48°27' W 124°15'3 5.7
2017-Dec-16 01:00N 48°25' W 124°11'2 4.2
2017-Dec-16 00:30N 48°24' W 124°08'2 3.8
2017-Dec-16 00:00N 48°24' W 124°11'2 4.5
2017-Dec-15 23:30N 48°26' W 124°13'3 5.3
2017-Dec-15 23:00N 48°25' W 124°10'3 5.5
2017-Dec-15 22:30N 48°24' W 124°06'3 5.9
2017-Dec-15 22:00N 48°23' W 124°02'3 5.9
2017-Dec-15 21:30N 48°22' W 123°57'3 5.3
2017-Dec-15 21:00N 48°21' W 123°53'3 5.2
2017-Dec-15 20:30N 48°21' W 123°50'3 5.8
2017-Dec-15 20:00N 48°20' W 123°46'3 5.6
2017-Dec-15 19:30N 48°19' W 123°42'3 5.4
2017-Dec-15 19:00N 48°18' W 123°38'3 5.8
2017-Dec-15 18:28N 48°18' W 123°33'4 8.5
2017-Dec-15 18:00N 48°20' W 123°28'4 8.3
2017-Dec-15 17:30N 48°23' W 123°23'5 9.1
2017-Dec-15 17:00N 48°23' W 123°17'4 8.1
2017-Dec-15 16:30N 48°26' W 123°13'5 9.2
2017-Dec-15 16:00N 48°31' W 123°13'5 9.3
2017-Dec-15 15:30N 48°36' W 123°14'510.2
2017-Dec-15 15:00N 48°41' W 123°16'4 7.2
2017-Dec-15 14:30N 48°43' W 123°12'4 8.4
2017-Dec-15 14:00N 48°45' W 123°06'4 8.7
2017-Dec-15 13:30N 48°48' W 123°01'5 8.7
2017-Dec-15 12:59N 48°51' W 123°05'5 9.5
2017-Dec-15 12:28N 48°55' W 123°10'4 9.0
2017-Dec-15 12:00N 48°57' W 123°15'4 8.3
2017-Dec-15 11:30N 49°00' W 123°20'4 8.1
2017-Dec-15 11:00N 49°03' W 123°24'4 8.2
2017-Dec-15 10:30N 49°07' W 123°26'4 8.5
2017-Dec-15 10:00N 49°11' W 123°26'4 8.6
2017-Dec-15 09:30N 49°16' W 123°28'4 8.5
2017-Dec-15 09:00N 49°20' W 123°27'4 8.6
2017-Dec-15 08:30N 49°24' W 123°25'4 8.0
2017-Dec-15 08:00N 49°27' W 123°28'1 1.3
2017-Dec-15 07:29N 49°28' W 123°27'1 2.5
2017-Dec-15 07:00N 49°27' W 123°27'5 9.6
2017-Dec-15 06:30N 49°22' W 123°26'510.5
2017-Dec-15 06:00N 49°17' W 123°26'510.1
2017-Dec-15 05:30N 49°12' W 123°23'5 9.2
2017-Dec-15 05:00N 49°08' W 123°20'4 8.2
2017-Dec-15 04:30N 49°08' W 123°14'612.5
2017-Dec-15 04:00N 49°07' W 123°05'9 5.9
2017-Dec-15 02:30N 49°13' W 122°53'0 0.0
2017-Dec-15 01:00N 49°12' W 122°53'0 0.0
2017-Dec-15 00:30N 49°13' W 122°53'0 0.0
2017-Dec-14 18:30N 49°13' W 122°53'0 0.0
2017-Dec-14 18:00N 49°13' W 122°53'0 0.0
2017-Dec-14 17:30N 49°12' W 122°53'0 0.0
2017-Dec-14 17:00N 49°13' W 122°53'0 0.0
2017-Dec-14 16:30N 49°13' W 122°53'0 0.0
2017-Dec-14 16:00N 49°13' W 122°53'0 0.0
2017-Dec-14 15:00N 49°13' W 122°53'0 0.0
2017-Dec-14 14:30N 49°13' W 122°53'0 0.0
2017-Dec-14 13:59N 49°13' W 122°53'0 0.0
2017-Dec-14 13:29N 49°13' W 122°53'0 0.0
2017-Dec-14 12:59N 49°13' W 122°53'0 0.0
2017-Dec-14 12:30N 49°13' W 122°53'0 0.0
2017-Dec-14 12:00N 49°13' W 122°53'0 0.0
2017-Dec-14 11:30N 49°13' W 122°53'0 0.0
2017-Dec-14 11:00N 49°13' W 122°53'0 0.0
2017-Dec-14 10:30N 49°13' W 122°53'0 0.0
2017-Dec-14 10:00N 49°13' W 122°53'0 0.0
2017-Dec-14 09:30N 49°12' W 122°53'0 0.0
2017-Dec-14 09:00N 49°13' W 122°53'0 0.0
2017-Dec-14 08:29N 49°13' W 122°53'0 0.0
2017-Dec-14 08:00N 49°13' W 122°53'0 0.0
2017-Dec-14 07:30N 49°12' W 122°53'0 0.0
2017-Dec-14 07:00N 49°13' W 122°53'0 0.0
2017-Dec-14 06:30N 49°13' W 122°53'0 0.0
2017-Dec-14 06:00N 49°12' W 122°53'0 0.0
2017-Dec-14 05:30N 49°13' W 122°53'0 0.0
2017-Dec-14 04:59N 49°13' W 122°53'0 0.0
2017-Dec-14 04:30N 49°13' W 122°53'0 0.0
2017-Dec-14 03:59N 49°13' W 122°53'1 1.0
2017-Dec-14 03:30N 49°12' W 122°54'2 4.2
2017-Dec-14 03:00N 49°10' W 122°56'3 6.8
2017-Dec-14 02:30N 49°09' W 123°00'4 7.5
2017-Dec-14 02:00N 49°07' W 123°05'4 7.7
2017-Dec-14 01:30N 49°07' W 123°11'4 7.7
2017-Dec-14 01:00N 49°07' W 123°17'5 9.3
2017-Dec-14 00:30N 49°08' W 123°23'611.4
2017-Dec-13 23:59N 49°14' W 123°26'511.2
2017-Dec-13 23:30N 49°19' W 123°26'510.7
2017-Dec-13 23:00N 49°25' W 123°26'3 6.7
2017-Dec-13 22:30N 49°28' W 123°27'0 0.0
2017-Dec-13 22:00N 49°28' W 123°27'0 0.0
2017-Dec-13 21:30N 49°28' W 123°27'0 0.0
2017-Dec-13 21:00N 49°28' W 123°27'0 0.0
2017-Dec-13 20:30N 49°28' W 123°27'0 0.0
2017-Dec-13 20:00N 49°28' W 123°27'0 0.0
2017-Dec-13 19:28N 49°28' W 123°27'0 0.0
2017-Dec-13 19:00N 49°28' W 123°27'0 0.0
2017-Dec-13 18:30N 49°28' W 123°27'0 0.0
2017-Dec-13 18:00N 49°28' W 123°27'0 0.0
2017-Dec-13 17:30N 49°28' W 123°27'0 0.1
2017-Dec-13 17:00N 49°28' W 123°28'0 0.1
2017-Dec-13 16:30N 49°28' W 123°27'0 0.0
2017-Dec-13 16:00N 49°28' W 123°27'0 0.0
2017-Dec-13 15:29N 49°28' W 123°27'0 0.0
2017-Dec-13 15:00N 49°28' W 123°27'0 0.0
2017-Dec-13 14:30N 49°28' W 123°27'0 0.0
2017-Dec-13 14:00N 49°28' W 123°27'0 0.0
2017-Dec-13 13:30N 49°28' W 123°27'0 0.0
2017-Dec-13 13:00N 49°28' W 123°27'0 0.0
2017-Dec-13 12:30N 49°28' W 123°27'0 0.0
2017-Dec-13 12:00N 49°28' W 123°27'0 0.0
2017-Dec-13 11:30N 49°28' W 123°27'0 0.0
2017-Dec-13 11:00N 49°28' W 123°27'0 0.0
2017-Dec-13 10:30N 49°28' W 123°27'0 0.0
2017-Dec-13 10:00N 49°28' W 123°27'0 0.0
2017-Dec-13 09:30N 49°28' W 123°27'0 0.0
2017-Dec-13 08:59N 49°28' W 123°27'0 0.0
2017-Dec-13 08:30N 49°28' W 123°27'0 0.0
2017-Dec-13 08:00N 49°28' W 123°27'0 0.0
2017-Dec-13 07:30N 49°28' W 123°27'0 0.0
2017-Dec-13 07:00N 49°28' W 123°27'0 0.0
2017-Dec-13 06:30N 49°28' W 123°27'0 0.0
2017-Dec-13 06:00N 49°28' W 123°27'0 0.0
2017-Dec-13 05:30N 49°28' W 123°27'0 0.0
2017-Dec-13 05:00N 49°28' W 123°27'0 0.0
2017-Dec-13 04:28N 49°28' W 123°27'0 0.0
2017-Dec-13 04:00N 49°28' W 123°27'0 0.0
2017-Dec-13 03:30N 49°28' W 123°27'0 0.0
2017-Dec-13 03:00N 49°28' W 123°27'0 0.0
2017-Dec-13 02:28N 49°28' W 123°27'0 0.0
2017-Dec-13 01:59N 49°28' W 123°27'0 0.0
2017-Dec-13 01:30N 49°28' W 123°27'0 0.0
2017-Dec-13 01:00N 49°28' W 123°27'0 0.0
2017-Dec-13 00:30N 49°28' W 123°27'1 2.1
2017-Dec-13 00:00N 49°28' W 123°29'0 0.2
2017-Dec-12 23:30N 49°28' W 123°29'0 0.0
2017-Dec-12 23:00N 49°28' W 123°29'0 0.0
2017-Dec-12 22:30N 49°28' W 123°29'0 0.8
2017-Dec-12 22:00N 49°28' W 123°28'1 1.2
2017-Dec-12 21:30N 49°28' W 123°27'0 0.2
2017-Dec-12 21:00N 49°28' W 123°28'1 1.0
2017-Dec-12 20:30N 49°28' W 123°28'2 3.5
2017-Dec-12 20:00N 49°26' W 123°27'3 3.8
2017-Dec-12 19:13N 49°23' W 123°28'1 5.7
2017-Dec-12 19:00N 49°23' W 123°30'3 5.4
2017-Dec-12 18:30N 49°22' W 123°34'3 5.4
2017-Dec-12 18:00N 49°23' W 123°38'3 5.4
2017-Dec-12 17:30N 49°23' W 123°42'3 5.2
2017-Dec-12 17:00N 49°23' W 123°46'3 5.2
2017-Dec-12 16:30N 49°24' W 123°50'3 5.2
2017-Dec-12 15:59N 49°25' W 123°54'2 5.0
2017-Dec-12 15:30N 49°25' W 123°57'2 5.0
2017-Dec-12 15:00N 49°26' W 124°01'3 5.2
2017-Dec-12 14:30N 49°28' W 124°04'3 5.4
2017-Dec-12 13:59N 49°29' W 124°08'6 5.5
2017-Dec-12 12:59N 49°32' W 124°15'3 5.3
2017-Dec-12 12:30N 49°33' W 124°19'3 5.8
2017-Dec-12 12:00N 49°34' W 124°23'3 5.3
2017-Dec-12 11:30N 49°35' W 124°26'3 5.1
2017-Dec-12 11:00N 49°37' W 124°30'2 5.1
2017-Dec-12 10:30N 49°38' W 124°33'3 5.2
2017-Dec-12 10:00N 49°40' W 124°36'3 5.4
2017-Dec-12 09:30N 49°41' W 124°39'3 5.1
2017-Dec-12 09:00N 49°43' W 124°43'3 5.4
2017-Dec-12 08:30N 49°44' W 124°46'3 5.5
2017-Dec-12 08:00N 49°46' W 124°49'3 5.1
2017-Dec-12 07:30N 49°48' W 124°52'2 4.9
2017-Dec-12 07:00N 49°49' W 124°55'3 5.1
2017-Dec-12 06:30N 49°51' W 124°58'3 5.3
2017-Dec-12 06:00N 49°53' W 125°01'3 5.5
2017-Dec-12 05:30N 49°55' W 125°05'3 5.6
2017-Dec-12 05:00N 49°57' W 125°08'3 6.4
2017-Dec-12 04:30N 49°59' W 125°12'4 7.7
2017-Dec-12 04:00N 50°02' W 125°14'3 6.5
2017-Dec-12 03:30N 50°05' W 125°16'2 4.8
2017-Dec-12 03:00N 50°07' W 125°19'2 3.8
2017-Dec-12 02:30N 50°08' W 125°21'2 3.1
2017-Dec-12 02:00N 50°09' W 125°21'1 2.5
2017-Dec-12 01:30N 50°11' W 125°22'1 1.4
2017-Dec-12 01:00N 50°11' W 125°22'1 1.5
2017-Dec-12 00:30N 50°12' W 125°22'1 1.7
2017-Dec-12 00:00N 50°13' W 125°23'1 1.5
2017-Dec-11 23:30N 50°14' W 125°23'1 1.7
2017-Dec-11 23:00N 50°14' W 125°23'1 1.9
2017-Dec-11 22:29N 50°15' W 125°24'1 1.8
2017-Dec-11 22:00N 50°16' W 125°24'1 1.4
2017-Dec-11 21:30N 50°17' W 125°25'1 1.7
2017-Dec-11 21:00N 50°18' W 125°25'1 1.9
2017-Dec-11 20:30N 50°18' W 125°25'1 2.8
2017-Dec-11 20:00N 50°17' W 125°24'2 4.1
2017-Dec-11 19:30N 50°15' W 125°23'2 3.9
2017-Dec-11 19:00N 50°13' W 125°22'1 2.4
2017-Dec-11 18:30N 50°12' W 125°22'2 3.7
2017-Dec-11 18:00N 50°14' W 125°23'2 3.8
2017-Dec-11 17:29N 50°16' W 125°24'2 4.4
2017-Dec-11 16:56N 50°18' W 125°25'2 4.8
2017-Dec-11 16:29N 50°20' W 125°26'3 6.1
2017-Dec-11 15:56N 50°21' W 125°31'3 5.7
2017-Dec-11 15:24N 50°22' W 125°36'4 5.6
2017-Dec-11 14:42N 50°22' W 125°42'3 6.0
2017-Dec-11 14:11N 50°22' W 125°47'14 3.7
2017-Dec-11 10:23N 50°28' W 126°06'1 2.1
2017-Dec-11 09:59N 50°28' W 126°08'1 2.5
2017-Dec-11 09:30N 50°28' W 126°10'4 2.4
2017-Dec-11 07:46N 50°29' W 126°16'1 2.4
2017-Dec-11 07:20N 50°29' W 126°18'1 2.6
2017-Dec-11 06:51N 50°29' W 126°20'1 2.2
2017-Dec-11 06:13N 50°30' W 126°22'1 2.1
2017-Dec-11 05:54N 50°30' W 126°23'1 2.2
2017-Dec-11 05:16N 50°30' W 126°25'1 2.1
2017-Dec-11 05:00N 50°30' W 126°26'1 2.5
2017-Dec-11 04:28N 50°30' W 126°28'1 2.6
2017-Dec-11 03:58N 50°30' W 126°30'1 2.1
2017-Dec-11 03:28N 50°30' W 126°32'11 2.4
2017-Dec-10 23:00N 50°37' W 126°45'1 1.6
2017-Dec-10 22:28N 50°37' W 126°46'1 2.8
2017-Dec-10 21:59N 50°38' W 126°47'1 2.8
2017-Dec-10 21:29N 50°39' W 126°49'2 2.9
2017-Dec-10 20:46N 50°40' W 126°51'1 2.7
2017-Dec-10 20:29N 50°41' W 126°52'2 2.8
2017-Dec-10 19:56N 50°42' W 126°54'1 2.6
2017-Dec-10 19:26N 50°43' W 126°56'1 3.2
2017-Dec-10 18:59N 50°43' W 126°58'2 3.2
2017-Dec-10 18:30N 50°44' W 126°60'2 3.8
2017-Dec-10 18:00N 50°46' W 127°02'2 4.2
2017-Dec-10 17:30N 50°47' W 127°04'2 4.1
2017-Dec-10 17:00N 50°48' W 127°07'2 4.1
2017-Dec-10 16:30N 50°49' W 127°10'2 4.2
2017-Dec-10 16:00N 50°50' W 127°13'2 2.9
2017-Dec-10 15:28N 50°51' W 127°15'1 2.0
2017-Dec-10 14:59N 50°51' W 127°16'1 2.7
2017-Dec-10 14:30N 50°52' W 127°18'2 3.2
2017-Dec-10 14:01N 50°53' W 127°20'2 3.2
2017-Dec-10 13:31N 50°54' W 127°22'3 5.9
2017-Dec-10 13:01N 50°55' W 127°26'3 6.0
2017-Dec-10 12:30N 50°57' W 127°30'3 5.4
2017-Dec-10 12:00N 50°59' W 127°33'3 5.1
2017-Dec-10 11:30N 51°01' W 127°36'2 4.5
2017-Dec-10 11:00N 51°02' W 127°38'2 3.9
2017-Dec-10 10:30N 51°04' W 127°41'2 3.8
2017-Dec-10 10:00N 51°05' W 127°43'2 4.0
2017-Dec-10 09:30N 51°06' W 127°46'2 4.2
2017-Dec-10 09:00N 51°07' W 127°48'2 4.2
2017-Dec-10 08:30N 51°09' W 127°51'2 3.9
2017-Dec-10 08:00N 51°11' W 127°52'2 4.2
2017-Dec-10 07:30N 51°13' W 127°52'2 4.2
2017-Dec-10 07:00N 51°15' W 127°52'3 4.3
2017-Dec-10 06:24N 51°17' W 127°53'2 4.0
2017-Dec-10 05:59N 51°19' W 127°53'2 3.5
2017-Dec-10 05:30N 51°21' W 127°53'2 4.0
2017-Dec-10 05:00N 51°23' W 127°54'2 4.9
2017-Dec-10 04:31N 51°25' W 127°52'2 4.6
2017-Dec-10 04:00N 51°27' W 127°51'2 4.2
2017-Dec-10 03:30N 51°29' W 127°51'2 3.3
2017-Dec-10 03:00N 51°31' W 127°51'1 2.3
2017-Dec-10 02:30N 51°32' W 127°52'1 2.1
2017-Dec-10 02:00N 51°33' W 127°52'1 2.3
2017-Dec-10 01:30N 51°34' W 127°52'1 2.8
2017-Dec-10 01:00N 51°35' W 127°53'2 4.5
2017-Dec-10 00:30N 51°38' W 127°54'2 4.8
2017-Dec-10 00:00N 51°40' W 127°55'3 5.2
2017-Dec-09 23:30N 51°42' W 127°56'3 5.4
2017-Dec-09 23:00N 51°45' W 127°57'3 5.4
2017-Dec-09 22:30N 51°48' W 127°57'3 5.2
2017-Dec-09 22:00N 51°50' W 127°57'3 5.4
2017-Dec-09 21:30N 51°53' W 127°57'3 5.6
2017-Dec-09 21:00N 51°56' W 127°56'3 5.2
2017-Dec-09 20:30N 51°58' W 127°56'1 1.9
2017-Dec-09 20:00N 51°59' W 127°55'2 4.5
2017-Dec-09 19:30N 51°57' W 127°56'2 4.8
2017-Dec-09 19:00N 51°54' W 127°56'3 5.3
2017-Dec-09 18:30N 51°52' W 127°55'2 4.7
2017-Dec-09 18:00N 51°49' W 127°55'2 4.0
2017-Dec-09 17:30N 51°47' W 127°55'2 3.3
2017-Dec-09 17:00N 51°46' W 127°54'2 3.6
2017-Dec-09 16:30N 51°44' W 127°54'2 3.4
2017-Dec-09 16:00N 51°42' W 127°54'2 3.5
2017-Dec-09 15:30N 51°41' W 127°54'2 3.6
2017-Dec-09 15:00N 51°39' W 127°53'2 3.1
2017-Dec-09 14:30N 51°37' W 127°54'2 3.7
2017-Dec-09 14:00N 51°39' W 127°56'2 4.0
2017-Dec-09 13:30N 51°41' W 127°57'2 3.9
2017-Dec-09 13:00N 51°42' W 127°57'2 3.6
2017-Dec-09 12:30N 51°44' W 127°56'2 3.1
2017-Dec-09 12:00N 51°43' W 127°55'2 4.1
2017-Dec-09 11:30N 51°41' W 127°54'2 3.9
2017-Dec-09 11:00N 51°39' W 127°53'2 3.5
2017-Dec-09 10:30N 51°37' W 127°54'2 3.7
2017-Dec-09 10:00N 51°39' W 127°56'2 4.2
2017-Dec-09 09:30N 51°41' W 127°57'2 4.3
2017-Dec-09 09:00N 51°43' W 127°58'2 4.6
2017-Dec-09 08:30N 51°45' W 127°58'2 4.7
2017-Dec-09 08:00N 51°48' W 127°58'2 4.1
2017-Dec-09 07:30N 51°50' W 127°58'2 4.5
2017-Dec-09 07:01N 51°52' W 127°58'2 3.7
2017-Dec-09 06:30N 51°53' W 127°56'1 2.8
2017-Dec-09 06:00N 51°52' W 127°56'1 2.8
2017-Dec-09 05:30N 51°50' W 127°56'1 2.7
2017-Dec-09 05:00N 51°49' W 127°56'1 3.0
2017-Dec-09 04:30N 51°48' W 127°56'2 3.0
2017-Dec-09 04:00N 51°46' W 127°56'2 3.3
2017-Dec-09 03:30N 51°45' W 127°55'2 3.3
2017-Dec-09 03:00N 51°43' W 127°55'2 3.8
2017-Dec-09 02:30N 51°41' W 127°54'2 4.3
2017-Dec-09 02:00N 51°39' W 127°53'2 3.2
2017-Dec-09 01:30N 51°38' W 127°55'3 5.7
2017-Dec-09 01:00N 51°40' W 127°57'3 6.2
2017-Dec-09 00:30N 51°43' W 127°58'3 6.3
2017-Dec-09 00:00N 51°47' W 127°57'3 6.1
2017-Dec-08 23:30N 51°50' W 127°57'3 5.5
2017-Dec-08 23:00N 51°52' W 127°56'3 5.9
2017-Dec-08 22:30N 51°55' W 127°56'3 5.9
2017-Dec-08 22:00N 51°58' W 127°56'3 5.7
2017-Dec-08 21:30N 52°01' W 127°55'3 5.6
2017-Dec-08 21:00N 52°04' W 127°55'3 6.8
2017-Dec-08 20:30N 52°07' W 127°53'3 6.2
2017-Dec-08 20:00N 52°10' W 127°52'12 3.9
2017-Dec-08 17:02N 52°18' W 128°06'0 3.9
2017-Dec-08 17:00N 52°18' W 128°06'3 4.6
2017-Dec-08 16:25N 52°16' W 128°09'2 5.2
2017-Dec-08 16:00N 52°14' W 128°12'2 3.0
2017-Dec-08 15:13N 52°14' W 128°15'1 4.6
2017-Dec-08 14:59N 52°15' W 128°17'3 4.4
2017-Dec-08 14:16N 52°15' W 128°22'1 4.3
2017-Dec-08 14:00N 52°15' W 128°24'2 4.3
2017-Dec-08 13:30N 52°16' W 128°27'2 4.9
2017-Dec-08 13:00N 52°18' W 128°30'2 5.0
2017-Dec-08 12:30N 52°20' W 128°31'  

Dump ship's entire track history